Pemberton, Ohio
Current Conditions -  °F | °C
As of 9:30 PM on Sunday 23 Nov 2014 (Local Time) from KEDJ Reporting Station
Broken Clouds Broken Clouds  
Wind Chill: 50°   Ceiling: 1200
Heat Index: 50°   Visibility: 4mi
Dew Point: 50°   Wind: 26mph
Humidity: 100%   Direction: 140°SE
Pressure: 29.35"   Gusts: 32mph
Location:  40.29°N, 84.03°W
Report Text: KEDJ 240230Z AUTO 14023G28KT 4SM BKN012 10/10 A2935 RMK AO1 P0008
Loading
Personal Weather Stations






























Interactive Weather Map New forecast layout! Learn more

10-Day Weather Forecast

Advertisements
Track Severe Weather on mobile